Time;durP1;ratioP1;P1;durP2;ratioP2;P2;SDS_P1;SDS_P2;PMS_P1;PMS_P2;Temp;Humidity;BMP_temperature;BMP_pressure;BME280_temperature;BME280_humidity;BME280_pressure;Samples;Min_cycle;Max_cycle;Signal;HPM_P1;HPM_P2
2021/10/17 00:01:46;;;;;;;5.43;3.70;;;;;;;;;;5073794;28;20308;-62
2021/10/17 00:04:11;;;;;;;6.73;3.50;;;;;;;;;;5073534;28;20560;-62
2021/10/17 00:06:36;;;;;;;11.33;4.90;;;;;;;;;;5073810;28;20303;-61
2021/10/17 00:09:03;;;;;;;5.17;4.03;;;;;;;;;;5073222;28;20231;-61
2021/10/17 00:11:28;;;;;;;4.37;3.20;;;;;;;;;;5073712;28;20216;-62
2021/10/17 00:13:53;;;;;;;8.53;3.50;;;;;;;;;;5073626;28;20841;-62
2021/10/17 00:16:19;;;;;;;6.83;3.63;;;;;;;;;;5072432;28;20220;-62
2021/10/17 00:18:45;;;;;;;6.37;3.50;;;;;;;;;;5072619;28;20281;-62
2021/10/17 00:21:10;;;;;;;5.60;2.90;;;;;;;;;;5073002;28;20541;-62
2021/10/17 00:23:35;;;;;;;3.70;2.63;;;;;;;;;;5073384;28;20220;-61
2021/10/17 00:26:01;;;;;;;5.70;3.30;;;;;;;;;;5073084;28;20229;-62
2021/10/17 00:28:26;;;;;;;6.63;3.17;;;;;;;;;;5073372;28;20224;-62
2021/10/17 00:30:51;;;;;;;5.00;3.13;;;;;;;;;;5073222;28;20226;-62
2021/10/17 00:33:16;;;;;;;11.10;4.77;;;;;;;;;;5072908;28;20569;-61
2021/10/17 00:35:42;;;;;;;4.40;2.83;;;;;;;;;;5073506;28;20213;-62
2021/10/17 00:38:07;;;;;;;4.07;2.60;;;;;;;;;;5072774;28;20220;-62
2021/10/17 00:40:32;;;;;;;5.33;3.40;;;;;;;;;;5073122;28;20245;-62
2021/10/17 00:42:58;;;;;;;5.10;3.00;;;;;;;;;;5073013;28;20274;-61
2021/10/17 00:45:29;;;;;;;5.77;3.20;;;;;;;;;;5072137;28;20212;-61
2021/10/17 00:47:56;;;;;;;4.97;3.23;;;;;;;;;;5075392;28;20235;-61
2021/10/17 00:50:22;;;;;;;4.23;3.10;;;;;;;;;;5075756;28;20512;-61
2021/10/17 00:52:47;;;;;;;5.33;3.50;;;;;;;;;;5076826;28;20459;-61
2021/10/17 00:55:14;;;;;;;8.80;3.70;;;;;;;;;;5076529;28;20218;-61
2021/10/17 00:57:41;;;;;;;5.83;3.30;;;;;;;;;;5076730;28;20211;-62
2021/10/17 01:00:06;;;;;;;3.83;3.00;;;;;;;;;;5076239;28;20475;-62
2021/10/17 01:02:32;;;;;;;5.73;3.10;;;;;;;;;;5076593;28;20455;-62
2021/10/17 01:04:59;;;;;;;7.73;3.00;;;;;;;;;;5076421;28;20221;-61
2021/10/17 01:07:24;;;;;;;6.40;3.30;;;;;;;;;;5075334;28;20280;-60
2021/10/17 01:09:49;;;;;;;5.77;3.30;;;;;;;;;;5076264;28;20808;-61
2021/10/17 01:12:14;;;;;;;4.07;2.80;;;;;;;;;;5075699;28;20319;-61
2021/10/17 01:14:40;;;;;;;6.70;3.63;;;;;;;;;;5076242;28;20221;-61
2021/10/17 01:17:05;;;;;;;7.57;3.50;;;;;;;;;;5076055;28;20641;-60
2021/10/17 01:19:31;;;;;;;6.13;3.93;;;;;;;;;;5076445;28;20227;-62
2021/10/17 01:21:56;;;;;;;8.13;3.27;;;;;;;;;;5076208;28;20295;-62
2021/10/17 01:24:21;;;;;;;4.93;3.10;;;;;;;;;;5075666;28;20224;-61
2021/10/17 01:26:47;;;;;;;6.20;3.53;;;;;;;;;;5076358;28;20213;-61
2021/10/17 01:29:12;;;;;;;4.00;2.93;;;;;;;;;;5075799;28;20240;-61
2021/10/17 01:31:46;;;;;;;6.80;3.20;;;;;;;;;;5076095;28;20297;-61
2021/10/17 01:34:13;;;;;;;3.93;2.80;;;;;;;;;;5075753;28;20559;-60
2021/10/17 01:36:39;;;;;;;7.73;3.10;;;;;;;;;;5076039;28;20446;-61
2021/10/17 01:39:05;;;;;;;7.03;3.87;;;;;;;;;;5075458;28;20458;-61
2021/10/17 01:41:31;;;;;;;3.10;2.40;;;;;;;;;;5075888;28;20224;-62
2021/10/17 01:44:03;;;;;;;4.13;3.40;;;;;;;;;;5076016;28;20516;-61
2021/10/17 01:46:29;;;;;;;5.97;3.10;;;;;;;;;;5074987;28;21205;-61
2021/10/17 01:48:54;;;;;;;5.73;2.90;;;;;;;;;;5075836;28;20459;-62
2021/10/17 01:51:20;;;;;;;4.87;3.03;;;;;;;;;;5075269;28;20350;-61
2021/10/17 01:53:45;;;;;;;5.50;2.80;;;;;;;;;;5075902;28;20325;-61
2021/10/17 01:56:10;;;;;;;4.10;2.83;;;;;;;;;;5075246;28;20216;-60
2021/10/17 01:58:36;;;;;;;3.23;2.83;;;;;;;;;;5075218;28;20213;-62
2021/10/17 02:01:01;;;;;;;7.90;3.97;;;;;;;;;;5075449;28;20312;-61
2021/10/17 02:03:26;;;;;;;4.90;3.10;;;;;;;;;;5075231;28;20208;-61
2021/10/17 02:05:52;;;;;;;5.53;2.60;;;;;;;;;;5074939;28;20608;-62
2021/10/17 02:08:17;;;;;;;4.67;2.80;;;;;;;;;;5075437;28;20213;-61
2021/10/17 02:10:42;;;;;;;7.23;3.30;;;;;;;;;;5075155;28;20728;-61
2021/10/17 02:13:07;;;;;;;6.40;3.63;;;;;;;;;;5075243;28;20714;-60
2021/10/17 02:15:33;;;;;;;4.50;3.10;;;;;;;;;;5075711;28;20220;-61
2021/10/17 02:17:58;;;;;;;11.17;4.40;;;;;;;;;;5075586;28;20212;-62
2021/10/17 02:20:23;;;;;;;6.90;3.33;;;;;;;;;;5074917;28;20221;-62
2021/10/17 02:22:48;;;;;;;6.63;3.80;;;;;;;;;;5075141;28;20237;-61
2021/10/17 02:25:14;;;;;;;6.83;3.17;;;;;;;;;;5074967;28;20216;-61
2021/10/17 02:27:39;;;;;;;4.37;2.97;;;;;;;;;;5074968;28;20208;-61
2021/10/17 02:30:06;;;;;;;4.70;3.43;;;;;;;;;;5075000;28;20270;-62
2021/10/17 02:32:34;;;;;;;7.43;2.93;;;;;;;;;;5074591;28;20231;-61
2021/10/17 02:35:00;;;;;;;4.77;3.53;;;;;;;;;;5074979;28;20466;-62
2021/10/17 02:37:25;;;;;;;4.90;2.50;;;;;;;;;;5074313;28;20462;-60
2021/10/17 02:39:50;;;;;;;5.20;3.00;;;;;;;;;;5074854;28;20471;-61
2021/10/17 02:42:15;;;;;;;11.40;3.70;;;;;;;;;;5074281;28;20740;-62
2021/10/17 02:44:43;;;;;;;6.53;3.27;;;;;;;;;;5074667;28;20210;-61
2021/10/17 02:47:08;;;;;;;4.07;2.80;;;;;;;;;;5074311;28;20220;-61
2021/10/17 02:49:33;;;;;;;7.13;2.80;;;;;;;;;;5074365;28;20459;-61
2021/10/17 02:51:58;;;;;;;5.90;3.20;;;;;;;;;;5074417;28;20304;-61
2021/10/17 02:54:24;;;;;;;8.90;2.77;;;;;;;;;;5074183;28;20210;-61
2021/10/17 02:56:50;;;;;;;3.00;2.70;;;;;;;;;;5074594;28;20291;-61
2021/10/17 02:59:16;;;;;;;6.90;2.73;;;;;;;;;;5073943;28;20600;-62
2021/10/17 03:01:41;;;;;;;7.90;2.90;;;;;;;;;;5073380;28;20575;-61
2021/10/17 03:04:06;;;;;;;3.53;2.90;;;;;;;;;;5074253;28;20454;-61
2021/10/17 03:06:32;;;;;;;4.47;3.03;;;;;;;;;;5073752;28;20223;-61
2021/10/17 03:08:57;;;;;;;6.40;2.63;;;;;;;;;;5074022;28;20216;-62
2021/10/17 03:11:22;;;;;;;9.40;3.33;;;;;;;;;;5072921;28;20675;-61
2021/10/17 03:13:48;;;;;;;8.00;3.73;;;;;;;;;;5074273;28;20249;-61
2021/10/17 03:16:13;;;;;;;5.07;2.90;;;;;;;;;;5073653;28;20205;-61
2021/10/17 03:18:39;;;;;;;5.23;2.50;;;;;;;;;;5073957;28;20209;-61
2021/10/17 03:21:04;;;;;;;3.97;2.93;;;;;;;;;;5074217;28;20251;-61
2021/10/17 03:23:29;;;;;;;4.00;3.43;;;;;;;;;;5073807;28;20231;-60
2021/10/17 03:25:54;;;;;;;5.10;3.10;;;;;;;;;;5073975;28;20232;-62
2021/10/17 03:28:20;;;;;;;4.20;3.00;;;;;;;;;;5073874;28;20212;-61
2021/10/17 03:30:45;;;;;;;5.00;2.80;;;;;;;;;;5074021;28;20292;-62
2021/10/17 03:33:10;;;;;;;6.70;2.60;;;;;;;;;;5073662;28;20286;-60
2021/10/17 03:35:35;;;;;;;3.93;3.27;;;;;;;;;;5073983;28;20295;-62
2021/10/17 03:38:01;;;;;;;6.73;3.57;;;;;;;;;;5073960;28;20540;-61
2021/10/17 03:40:26;;;;;;;4.20;2.73;;;;;;;;;;5073388;28;20227;-62
2021/10/17 03:42:52;;;;;;;4.90;2.73;;;;;;;;;;5073887;28;20219;-61
2021/10/17 03:45:17;;;;;;;5.80;3.27;;;;;;;;;;5073409;28;20303;-61
2021/10/17 03:47:42;;;;;;;4.10;3.60;;;;;;;;;;5073857;28;20216;-62
2021/10/17 03:50:08;;;;;;;5.33;3.20;;;;;;;;;;5072752;28;20231;-62
2021/10/17 03:52:33;;;;;;;5.97;3.17;;;;;;;;;;5073251;28;20652;-61
2021/10/17 03:54:59;;;;;;;4.20;2.80;;;;;;;;;;5073911;28;20289;-62
2021/10/17 03:57:24;;;;;;;4.40;3.07;;;;;;;;;;5073491;28;20218;-61
2021/10/17 03:59:49;;;;;;;6.07;3.30;;;;;;;;;;5073595;28;20299;-61
2021/10/17 04:02:14;;;;;;;6.40;3.20;;;;;;;;;;5073192;28;20212;-61
2021/10/17 04:04:40;;;;;;;6.27;3.37;;;;;;;;;;5073594;28;20568;-62
2021/10/17 04:07:06;;;;;;;4.23;2.80;;;;;;;;;;5073559;28;20282;-60
2021/10/17 04:09:31;;;;;;;5.97;2.97;;;;;;;;;;5072867;28;20256;-61
2021/10/17 04:11:57;;;;;;;6.37;2.77;;;;;;;;;;5073479;28;20549;-61
2021/10/17 04:14:22;;;;;;;4.10;3.20;;;;;;;;;;5073235;28;20247;-60
2021/10/17 04:16:47;;;;;;;4.73;2.80;;;;;;;;;;5073512;28;20593;-61
2021/10/17 04:19:12;;;;;;;4.83;2.80;;;;;;;;;;5073580;28;20220;-61
2021/10/17 04:21:38;;;;;;;3.80;2.60;;;;;;;;;;5074634;28;21000;-62
2021/10/17 04:24:03;;;;;;;3.60;2.57;;;;;;;;;;5077097;28;20213;-61
2021/10/17 04:26:29;;;;;;;3.73;2.60;;;;;;;;;;5076546;28;20209;-61
2021/10/17 04:28:54;;;;;;;4.70;2.53;;;;;;;;;;5077101;28;20217;-62
2021/10/17 04:31:19;;;;;;;4.93;3.20;;;;;;;;;;5076499;28;20299;-62
2021/10/17 04:33:44;;;;;;;3.10;2.80;;;;;;;;;;5076923;28;20318;-62
2021/10/17 04:36:10;;;;;;;8.73;2.87;;;;;;;;;;5076890;28;20308;-62
2021/10/17 04:38:35;;;;;;;2.80;2.53;;;;;;;;;;5076877;28;20209;-61
2021/10/17 04:41:01;;;;;;;3.60;2.70;;;;;;;;;;5076793;28;20526;-61
2021/10/17 04:43:26;;;;;;;5.53;3.30;;;;;;;;;;5075474;28;20217;-61
2021/10/17 04:45:52;;;;;;;4.67;3.37;;;;;;;;;;5075945;28;20512;-61
2021/10/17 04:48:17;;;;;;;4.30;2.63;;;;;;;;;;5076693;28;20212;-60
2021/10/17 04:50:42;;;;;;;7.20;3.20;;;;;;;;;;5076520;28;20224;-62
2021/10/17 04:53:09;;;;;;;4.67;3.07;;;;;;;;;;5076679;28;20236;-62
2021/10/17 04:55:34;;;;;;;5.50;2.70;;;;;;;;;;5076326;28;20216;-62
2021/10/17 04:58:02;;;;;;;3.80;2.77;;;;;;;;;;5076731;28;20462;-61
2021/10/17 05:00:27;;;;;;;3.20;2.90;;;;;;;;;;5075985;28;20683;-61
2021/10/17 05:02:52;;;;;;;6.27;3.30;;;;;;;;;;5076560;28;20462;-62
2021/10/17 05:05:18;;;;;;;4.40;3.13;;;;;;;;;;5076203;28;20587;-61
2021/10/17 05:07:43;;;;;;;4.83;2.90;;;;;;;;;;5076437;28;20236;-61
2021/10/17 05:10:09;;;;;;;4.80;2.83;;;;;;;;;;5076205;28;20239;-61
2021/10/17 05:12:34;;;;;;;3.70;2.40;;;;;;;;;;5076002;28;20251;-61
2021/10/17 05:14:59;;;;;;;6.03;3.57;;;;;;;;;;5076294;28;20231;-61
2021/10/17 05:17:24;;;;;;;6.57;2.97;;;;;;;;;;5075828;28;20236;-61
2021/10/17 05:19:50;;;;;;;3.83;2.53;;;;;;;;;;5076115;28;20560;-62
2021/10/17 05:22:15;;;;;;;3.17;2.70;;;;;;;;;;5076258;28;20216;-61
2021/10/17 05:24:40;;;;;;;5.73;3.50;;;;;;;;;;5075875;28;20533;-61
2021/10/17 05:27:05;;;;;;;5.10;2.70;;;;;;;;;;5075990;28;20221;-62
2021/10/17 05:29:31;;;;;;;4.03;2.47;;;;;;;;;;5074676;28;20657;-62
2021/10/17 05:31:56;;;;;;;6.47;2.87;;;;;;;;;;5075881;28;20221;-62
2021/10/17 05:34:21;;;;;;;4.60;3.20;;;;;;;;;;5074573;28;20303;-61
2021/10/17 05:36:46;;;;;;;6.80;3.03;;;;;;;;;;5075816;28;20246;-61
2021/10/17 05:39:12;;;;;;;3.47;2.70;;;;;;;;;;5075739;28;20314;-61
2021/10/17 05:41:37;;;;;;;5.57;2.93;;;;;;;;;;5075455;28;20235;-62
2021/10/17 05:44:03;;;;;;;6.80;2.90;;;;;;;;;;5075597;28;20303;-62
2021/10/17 05:46:28;;;;;;;3.70;2.77;;;;;;;;;;5075461;28;20212;-61
2021/10/17 05:48:54;;;;;;;3.47;2.80;;;;;;;;;;5074454;28;20208;-62
2021/10/17 05:51:19;;;;;;;7.40;4.57;;;;;;;;;;5076487;28;20216;-65
2021/10/17 05:53:44;;;;;;;4.87;3.80;;;;;;;;;;5076596;28;20224;-65
2021/10/17 05:56:09;;;;;;;4.63;3.57;;;;;;;;;;5078290;28;20556;-62
2021/10/17 05:58:35;;;;;;;4.07;2.80;;;;;;;;;;5069197;28;20227;-62
2021/10/17 06:01:00;;;;;;;5.67;2.87;;;;;;;;;;5053689;28;20231;-62
2021/10/17 06:03:25;;;;;;;6.30;3.00;;;;;;;;;;5059088;28;20734;-61
2021/10/17 06:05:59;;;;;;;6.90;3.57;;;;;;;;;;5068677;28;20221;-62
2021/10/17 06:08:25;;;;;;;5.53;3.60;;;;;;;;;;5068033;28;20216;-61
2021/10/17 06:10:50;;;;;;;4.40;3.13;;;;;;;;;;5062820;28;20520;-62
2021/10/17 06:13:15;;;;;;;6.63;3.83;;;;;;;;;;5061327;28;20621;-62
2021/10/17 06:15:40;;;;;;;6.20;3.00;;;;;;;;;;5066879;28;20239;-62
2021/10/17 06:18:06;;;;;;;9.80;3.70;;;;;;;;;;5068544;28;20227;-61
2021/10/17 06:20:31;;;;;;;4.70;3.43;;;;;;;;;;5061630;28;20307;-62
2021/10/17 06:22:57;;;;;;;4.60;2.97;;;;;;;;;;5061328;28;20520;-61
2021/10/17 06:25:22;;;;;;;3.87;2.73;;;;;;;;;;5067005;28;20301;-62
2021/10/17 06:27:47;;;;;;;6.80;3.00;;;;;;;;;;5068324;28;20956;-62
2021/10/17 06:30:13;;;;;;;6.63;3.57;;;;;;;;;;5062139;28;20247;-60
2021/10/17 06:32:39;;;;;;;6.00;3.73;;;;;;;;;;5060745;28;20222;-61
2021/10/17 06:35:04;;;;;;;6.30;2.90;;;;;;;;;;5067788;28;20229;-61
2021/10/17 06:37:29;;;;;;;6.83;3.33;;;;;;;;;;5067546;28;20476;-61
2021/10/17 06:39:55;;;;;;;4.90;3.30;;;;;;;;;;5061138;28;20533;-61
2021/10/17 06:42:20;;;;;;;7.13;3.70;;;;;;;;;;5061415;28;20221;-61
2021/10/17 06:44:45;;;;;;;4.83;3.57;;;;;;;;;;5066159;28;20581;-60
2021/10/17 06:47:11;;;;;;;6.27;3.27;;;;;;;;;;5067965;28;20395;-61
2021/10/17 06:49:37;;;;;;;4.07;2.77;;;;;;;;;;5060591;28;20228;-61
2021/10/17 06:52:03;;;;;;;5.80;3.33;;;;;;;;;;5061173;28;20240;-62
2021/10/17 06:54:28;;;;;;;6.13;2.80;;;;;;;;;;5067454;28;20771;-62
2021/10/17 06:56:53;;;;;;;5.30;3.40;;;;;;;;;;5067603;28;20678;-61
2021/10/17 06:59:18;;;;;;;5.37;3.80;;;;;;;;;;5060978;28;20252;-61
2021/10/17 07:01:44;;;;;;;8.67;3.17;;;;;;;;;;5062510;28;20286;-61
2021/10/17 07:04:09;;;;;;;5.60;3.40;;;;;;;;;;5060848;28;20221;-61
2021/10/17 07:06:34;;;;;;;8.20;3.50;;;;;;;;;;5066412;28;20233;-60
2021/10/17 07:08:59;;;;;;;5.23;3.13;;;;;;;;;;5060594;28;20306;-60
2021/10/17 07:11:25;;;;;;;5.87;3.47;;;;;;;;;;5065363;28;20316;-59
2021/10/17 07:13:51;;;;;;;8.83;4.30;;;;;;;;;;5067397;28;20240;-61
2021/10/17 07:16:16;;;;;;;7.57;3.60;;;;;;;;;;5062210;28;20469;-61
2021/10/17 07:18:41;;;;;;;5.30;3.23;;;;;;;;;;5059790;28;20404;-62
2021/10/17 07:21:08;;;;;;;4.80;3.00;;;;;;;;;;5066142;28;20308;-62
2021/10/17 07:23:33;;;;;;;5.70;3.00;;;;;;;;;;5066923;28;20282;-62
2021/10/17 07:25:58;;;;;;;5.40;3.00;;;;;;;;;;5061645;28;20470;-62
2021/10/17 07:28:24;;;;;;;4.53;3.60;;;;;;;;;;5059318;28;20315;-61
2021/10/17 07:30:49;;;;;;;7.53;3.27;;;;;;;;;;5048209;28;20233;-62
2021/10/17 07:33:14;;;;;;;5.80;2.90;;;;;;;;;;5067213;28;20258;-62
2021/10/17 07:35:39;;;;;;;4.77;3.00;;;;;;;;;;5060308;28;20736;-61
2021/10/17 07:38:05;;;;;;;8.37;3.33;;;;;;;;;;5060258;28;20320;-61
2021/10/17 07:40:30;;;;;;;5.23;3.67;;;;;;;;;;5066183;28;20262;-60
2021/10/17 07:42:55;;;;;;;7.00;3.73;;;;;;;;;;5067406;28;20220;-62
2021/10/17 07:45:21;;;;;;;8.00;3.80;;;;;;;;;;5060269;28;20244;-62
2021/10/17 07:47:46;;;;;;;5.33;4.37;;;;;;;;;;5060095;28;20287;-62
2021/10/17 07:50:11;;;;;;;6.00;3.50;;;;;;;;;;5065879;28;20249;-62
2021/10/17 07:52:36;;;;;;;8.17;3.30;;;;;;;;;;5065798;28;20667;-62
2021/10/17 07:55:03;;;;;;;6.60;3.80;;;;;;;;;;5059996;28;20236;-62
2021/10/17 07:57:29;;;;;;;9.43;3.20;;;;;;;;;;5063193;28;20224;-62
2021/10/17 07:59:54;;;;;;;8.90;3.40;;;;;;;;;;5070466;28;20521;-62
2021/10/17 08:02:19;;;;;;;8.10;3.63;;;;;;;;;;5057518;28;20543;-62
2021/10/17 08:04:48;;;;;;;6.07;4.00;;;;;;;;;;5070220;28;20337;-62
2021/10/17 08:07:14;;;;;;;6.50;4.20;;;;;;;;;;5069536;28;20668;-62
2021/10/17 08:09:39;;;;;;;4.83;3.63;;;;;;;;;;5063704;28;20479;-62
2021/10/17 08:12:05;;;;;;;6.60;3.93;;;;;;;;;;5064000;28;20573;-62
2021/10/17 08:14:30;;;;;;;6.30;3.90;;;;;;;;;;5069893;28;20235;-63
2021/10/17 08:16:55;;;;;;;5.47;4.07;;;;;;;;;;5070212;28;20255;-61
2021/10/17 08:19:20;;;;;;;6.43;4.40;;;;;;;;;;5064196;28;20311;-62
2021/10/17 08:21:46;;;;;;;7.20;4.40;;;;;;;;;;5063558;28;20642;-62
2021/10/17 08:24:11;;;;;;;5.60;3.90;;;;;;;;;;5070599;28;20281;-62
2021/10/17 08:26:36;;;;;;;8.30;4.87;;;;;;;;;;5069839;28;20304;-62
2021/10/17 08:29:01;;;;;;;10.53;4.63;;;;;;;;;;5063612;28;20231;-62
2021/10/17 08:31:27;;;;;;;7.50;4.30;;;;;;;;;;5064032;28;20229;-62
2021/10/17 08:33:52;;;;;;;8.30;4.23;;;;;;;;;;5069968;28;20313;-63
2021/10/17 08:36:17;;;;;;;5.33;3.20;;;;;;;;;;5070427;28;20251;-62
2021/10/17 08:38:42;;;;;;;6.40;3.90;;;;;;;;;;5063187;28;20220;-62
2021/10/17 08:41:08;;;;;;;7.77;4.33;;;;;;;;;;5064380;28;20229;-62
2021/10/17 08:43:33;;;;;;;7.90;4.40;;;;;;;;;;5070318;28;20221;-61
2021/10/17 08:45:59;;;;;;;8.70;4.17;;;;;;;;;;5069201;28;20298;-61
2021/10/17 08:48:28;;;;;;;5.23;3.67;;;;;;;;;;5063520;28;20224;-63
2021/10/17 08:50:54;;;;;;;7.10;4.10;;;;;;;;;;5063522;28;20645;-62
2021/10/17 08:53:19;;;;;;;7.00;4.30;;;;;;;;;;5070271;28;20608;-62
2021/10/17 08:55:44;;;;;;;6.43;4.13;;;;;;;;;;5069144;28;20228;-62
2021/10/17 08:58:12;;;;;;;9.07;4.30;;;;;;;;;;5063489;28;20670;-62
2021/10/17 09:00:38;;;;;;;7.07;4.00;;;;;;;;;;5063195;28;20217;-63
2021/10/17 09:03:03;;;;;;;5.40;3.70;;;;;;;;;;5049393;28;20753;-63
2021/10/17 09:05:39;;;;;;;7.50;4.83;;;;;;;;;;5063919;28;20443;-62
2021/10/17 09:08:08;;;;;;;4.93;3.70;;;;;;;;;;5056172;28;20212;-63
2021/10/17 09:10:35;;;;;;;5.47;4.20;;;;;;;;;;5069491;28;20465;-62
2021/10/17 09:13:12;;;;;;;4.93;3.80;;;;;;;;;;5063952;28;20558;-61
2021/10/17 09:15:38;;;;;;;8.13;4.10;;;;;;;;;;5063066;28;20470;-62
2021/10/17 09:18:12;;;;;;;6.30;4.40;;;;;;;;;;5066407;28;20953;-61
2021/10/17 09:20:47;;;;;;;6.03;3.63;;;;;;;;;;5069847;28;20225;-62
2021/10/17 09:23:16;;;;;;;5.73;4.03;;;;;;;;;;5067662;28;20450;-62
2021/10/17 09:25:42;;;;;;;9.10;3.83;;;;;;;;;;5062672;28;20786;-62
2021/10/17 09:28:31;;;;;;;4.53;3.33;;;;;;;;;;5062862;28;20539;-62
2021/10/17 09:31:01;;;;;;;5.70;3.50;;;;;;;;;;5052784;28;20252;-61
2021/10/17 09:33:26;;;;;;;5.57;4.10;;;;;;;;;;5062323;28;20466;-62
2021/10/17 09:35:53;;;;;;;7.67;4.33;;;;;;;;;;5067011;28;20920;-62
2021/10/17 09:38:20;;;;;;;4.47;3.50;;;;;;;;;;5069339;28;20227;-63
2021/10/17 09:40:47;;;;;;;7.87;4.23;;;;;;;;;;5065298;28;20513;-62
2021/10/17 09:43:25;;;;;;;5.37;4.00;;;;;;;;;;5061358;28;20464;-62
2021/10/17 09:46:06;;;;;;;4.77;3.30;;;;;;;;;;5063435;28;20472;-61
2021/10/17 09:48:31;;;;;;;7.30;4.20;;;;;;;;;;5048373;28;20760;-62
2021/10/17 09:51:03;;;;;;;4.50;3.63;;;;;;;;;;5062008;28;20511;-61
2021/10/17 09:53:43;;;;;;;8.10;4.17;;;;;;;;;;5050179;28;20264;-62
2021/10/17 09:56:09;;;;;;;5.40;3.43;;;;;;;;;;5061742;28;21025;-63
2021/10/17 09:58:34;;;;;;;7.10;4.50;;;;;;;;;;5066500;28;20468;-62
2021/10/17 10:00:59;;;;;;;3.77;2.97;;;;;;;;;;5065680;28;20945;-61
2021/10/17 10:03:26;;;;;;;6.80;3.43;;;;;;;;;;5054288;28;20295;-62
2021/10/17 10:05:52;;;;;;;4.33;3.93;;;;;;;;;;5061779;28;20673;-61
2021/10/17 10:08:21;;;;;;;6.33;3.80;;;;;;;;;;5066411;28;20471;-63
2021/10/17 10:10:48;;;;;;;9.77;3.93;;;;;;;;;;5067191;28;20228;-62
2021/10/17 10:13:15;;;;;;;6.50;4.43;;;;;;;;;;5063186;28;20455;-62
2021/10/17 10:15:40;;;;;;;17.73;12.20;;;;;;;;;;5061827;28;20467;-63
2021/10/17 10:18:07;;;;;;;29.37;20.97;;;;;;;;;;5065393;28;20464;-63
2021/10/17 10:20:32;;;;;;;11.20;7.10;;;;;;;;;;5068227;28;20222;-63
2021/10/17 10:22:58;;;;;;;24.87;16.00;;;;;;;;;;5063962;28;20463;-62
2021/10/17 10:25:23;;;;;;;8.67;5.70;;;;;;;;;;5060872;28;20227;-62
2021/10/17 10:27:49;;;;;;;8.20;4.70;;;;;;;;;;5066158;28;20281;-62
2021/10/17 10:30:25;;;;;;;8.00;4.07;;;;;;;;;;5066929;28;20242;-62
2021/10/17 10:33:05;;;;;;;8.53;5.00;;;;;;;;;;5065898;28;20530;-63
2021/10/17 10:35:30;;;;;;;8.77;4.67;;;;;;;;;;5060754;28;20466;-62
2021/10/17 10:37:56;;;;;;;9.97;4.17;;;;;;;;;;5063073;28;20490;-63
2021/10/17 10:40:21;;;;;;;4.77;3.77;;;;;;;;;;5067528;28;20261;-62
2021/10/17 10:42:49;;;;;;;6.70;3.93;;;;;;;;;;5065741;28;20555;-62
2021/10/17 10:45:36;;;;;;;13.07;5.40;;;;;;;;;;5061212;28;20254;-62
2021/10/17 10:48:10;;;;;;;7.13;3.73;;;;;;;;;;5060847;28;20907;-62
2021/10/17 10:50:38;;;;;;;10.43;4.10;;;;;;;;;;5065754;28;20466;-62
2021/10/17 10:53:04;;;;;;;8.27;4.27;;;;;;;;;;5067648;28;20791;-63
2021/10/17 10:55:52;;;;;;;12.90;4.27;;;;;;;;;;5063495;28;20474;-63
2021/10/17 10:58:28;;;;;;;12.03;4.33;;;;;;;;;;5061048;28;20220;-61
2021/10/17 11:00:55;;;;;;;6.73;4.40;;;;;;;;;;5058688;28;20493;-62
2021/10/17 11:03:21;;;;;;;8.10;3.80;;;;;;;;;;5051736;28;20477;-63
2021/10/17 11:06:04;;;;;;;7.97;4.30;;;;;;;;;;5060515;28;20546;-63
2021/10/17 11:08:30;;;;;;;7.20;4.20;;;;;;;;;;5062594;28;20482;-62
2021/10/17 11:10:55;;;;;;;21.43;14.17;;;;;;;;;;5067366;28;20555;-62
2021/10/17 11:13:33;;;;;;;14.97;13.50;;;;;;;;;;5064924;28;20229;-63
2021/10/17 11:16:00;;;;;;;15.17;10.00;;;;;;;;;;5059306;28;20693;-63
2021/10/17 11:18:37;;;;;;;6.10;5.27;;;;;;;;;;5061009;28;20447;-63
2021/10/17 11:21:04;;;;;;;15.63;5.53;;;;;;;;;;5049134;28;20482;-62
2021/10/17 11:23:32;;;;;;;5.97;4.87;;;;;;;;;;5060478;28;20557;-62
2021/10/17 11:26:00;;;;;;;7.37;5.17;;;;;;;;;;5066143;28;20475;-62
2021/10/17 11:28:27;;;;;;;9.47;7.10;;;;;;;;;;5066854;28;20449;-62
2021/10/17 11:31:07;;;;;;;7.87;5.40;;;;;;;;;;5061454;28;20471;-63
2021/10/17 11:33:33;;;;;;;9.20;4.40;;;;;;;;;;5060077;28;20791;-63
2021/10/17 11:35:59;;;;;;;10.27;4.70;;;;;;;;;;5063571;28;20465;-62
2021/10/17 11:38:25;;;;;;;10.70;5.20;;;;;;;;;;5066567;28;20486;-62
2021/10/17 11:40:58;;;;;;;7.47;5.00;;;;;;;;;;5063741;28;20590;-63
2021/10/17 11:43:31;;;;;;;8.83;5.83;;;;;;;;;;5059698;28;20455;-62
2021/10/17 11:46:01;;;;;;;9.30;4.83;;;;;;;;;;5061774;28;20478;-62
2021/10/17 11:48:27;;;;;;;13.43;6.13;;;;;;;;;;5066944;28;20559;-62
2021/10/17 11:50:52;;;;;;;10.63;5.60;;;;;;;;;;5066148;28;20471;-62
2021/10/17 11:53:17;;;;;;;9.50;5.57;;;;;;;;;;5059733;28;20579;-62
2021/10/17 11:55:48;;;;;;;6.93;4.93;;;;;;;;;;5061080;28;20241;-63
2021/10/17 11:58:23;;;;;;;4.87;4.33;;;;;;;;;;5066375;28;20224;-62
2021/10/17 12:00:50;;;;;;;11.43;5.80;;;;;;;;;;5066662;28;20462;-62
2021/10/17 12:03:20;;;;;;;9.73;5.53;;;;;;;;;;5060989;28;20458;-63
2021/10/17 12:05:46;;;;;;;7.20;4.70;;;;;;;;;;5060045;28;21042;-62
2021/10/17 12:08:22;;;;;;;8.17;5.03;;;;;;;;;;5063516;28;20953;-62
2021/10/17 12:11:02;;;;;;;10.77;6.03;;;;;;;;;;5066911;28;20919;-61
2021/10/17 12:13:29;;;;;;;8.33;4.73;;;;;;;;;;5063411;28;20478;-62
2021/10/17 12:16:08;;;;;;;6.00;5.23;;;;;;;;;;5060103;28;20910;-62
2021/10/17 12:18:34;;;;;;;9.23;4.70;;;;;;;;;;5059460;28;20879;-62
2021/10/17 12:20:59;;;;;;;12.03;5.13;;;;;;;;;;5066462;28;20498;-62
2021/10/17 12:23:25;;;;;;;8.57;5.40;;;;;;;;;;5066196;28;21000;-62
2021/10/17 12:25:50;;;;;;;9.33;5.57;;;;;;;;;;5060630;28;20224;-62
2021/10/17 12:28:17;;;;;;;8.83;5.00;;;;;;;;;;5059342;28;20226;-63
2021/10/17 12:30:47;;;;;;;11.90;6.60;;;;;;;;;;5066347;28;20225;-63
2021/10/17 12:33:23;;;;;;;7.90;4.90;;;;;;;;;;5066131;28;20463;-61
2021/10/17 12:35:49;;;;;;;9.30;5.70;;;;;;;;;;5062137;28;20455;-62
2021/10/17 12:38:15;;;;;;;8.30;4.87;;;;;;;;;;5059141;28;20550;-61
2021/10/17 12:40:54;;;;;;;9.97;5.27;;;;;;;;;;5064739;28;20225;-62
2021/10/17 12:43:43;;;;;;;10.17;4.90;;;;;;;;;;5068400;28;20455;-61
2021/10/17 12:46:34;;;;;;;6.53;4.10;;;;;;;;;;5069878;28;20470;-62
2021/10/17 12:49:11;;;;;;;7.07;4.90;;;;;;;;;;5065116;28;20503;-62
2021/10/17 12:51:44;;;;;;;11.13;5.63;;;;;;;;;;5063098;28;20463;-62
2021/10/17 12:54:12;;;;;;;13.57;5.60;;;;;;;;;;5063461;28;20558;-62
2021/10/17 12:56:38;;;;;;;7.83;6.93;;;;;;;;;;5070139;28;20467;-62
2021/10/17 12:59:12;;;;;;;9.43;5.73;;;;;;;;;;5069140;28;20477;-62
2021/10/17 13:01:57;;;;;;;9.97;5.90;;;;;;;;;;5036408;28;20480;-62
2021/10/17 13:04:42;;;;;;;9.73;5.17;;;;;;;;;;5067001;28;20485;-61
2021/10/17 13:07:08;;;;;;;8.50;4.00;;;;;;;;;;5068740;28;20508;-62
2021/10/17 13:09:44;;;;;;;11.10;6.37;;;;;;;;;;5062651;28;20497;-62
2021/10/17 13:12:27;;;;;;;10.70;4.70;;;;;;;;;;5062402;28;20232;-62
2021/10/17 13:15:04;;;;;;;8.07;4.20;;;;;;;;;;5066519;28;20974;-62
2021/10/17 13:17:31;;;;;;;7.97;4.20;;;;;;;;;;5069374;28;20538;-62
2021/10/17 13:19:59;;;;;;;7.60;4.53;;;;;;;;;;5066997;28;20498;-62
2021/10/17 13:22:25;;;;;;;8.03;4.90;;;;;;;;;;5062184;28;20942;-62
2021/10/17 13:24:51;;;;;;;9.43;5.40;;;;;;;;;;5064993;28;20816;-62
2021/10/17 13:27:16;;;;;;;5.57;4.57;;;;;;;;;;5068988;28;20495;-62
2021/10/17 13:29:41;;;;;;;8.73;5.13;;;;;;;;;;5066717;28;20220;-62
2021/10/17 13:32:07;;;;;;;8.80;5.40;;;;;;;;;;5061913;28;20233;-62
2021/10/17 13:34:33;;;;;;;7.13;4.10;;;;;;;;;;5065310;28;20241;-62
2021/10/17 13:36:58;;;;;;;6.70;4.53;;;;;;;;;;5069000;28;20695;-62
2021/10/17 13:39:23;;;;;;;8.93;5.30;;;;;;;;;;5065861;28;20224;-62
2021/10/17 13:41:48;;;;;;;13.37;5.60;;;;;;;;;;5062235;28;20251;-62
2021/10/17 13:44:14;;;;;;;8.90;5.23;;;;;;;;;;5065696;28;20626;-62
2021/10/17 13:46:39;;;;;;;8.30;5.00;;;;;;;;;;5069208;28;20235;-63
2021/10/17 13:49:04;;;;;;;9.13;5.07;;;;;;;;;;5065357;28;20593;-62
2021/10/17 13:51:30;;;;;;;9.67;5.90;;;;;;;;;;5061454;28;20228;-63
2021/10/17 13:53:55;;;;;;;11.93;5.20;;;;;;;;;;5065593;28;20256;-62
2021/10/17 13:56:21;;;;;;;12.37;6.33;;;;;;;;;;5068384;28;20232;-62
2021/10/17 13:58:46;;;;;;;12.07;5.07;;;;;;;;;;5064329;28;20366;-62
2021/10/17 14:01:11;;;;;;;7.43;5.50;;;;;;;;;;5055173;28;20589;-61
2021/10/17 14:03:37;;;;;;;8.50;5.00;;;;;;;;;;5057111;28;20223;-63
2021/10/17 14:06:02;;;;;;;9.43;5.50;;;;;;;;;;5061503;28;20299;-62
2021/10/17 14:08:27;;;;;;;8.00;4.83;;;;;;;;;;5067640;28;20262;-63
2021/10/17 14:10:54;;;;;;;10.13;5.27;;;;;;;;;;5061334;28;20236;-63
2021/10/17 14:13:20;;;;;;;7.47;5.07;;;;;;;;;;5064741;28;20241;-63
2021/10/17 14:15:46;;;;;;;6.53;5.17;;;;;;;;;;5068663;28;20970;-63
2021/10/17 14:18:11;;;;;;;8.47;5.83;;;;;;;;;;5064825;28;20462;-61
2021/10/17 14:20:37;;;;;;;10.50;6.20;;;;;;;;;;5061278;28;20282;-62
2021/10/17 14:23:02;;;;;;;10.30;4.93;;;;;;;;;;5065559;28;20224;-63
2021/10/17 14:25:28;;;;;;;9.07;4.87;;;;;;;;;;5068008;28;20809;-62
2021/10/17 14:27:53;;;;;;;9.70;5.40;;;;;;;;;;5046097;28;20307;-62
2021/10/17 14:30:18;;;;;;;11.43;4.50;;;;;;;;;;5060773;28;20668;-63
2021/10/17 14:32:44;;;;;;;7.90;5.27;;;;;;;;;;5065653;28;20236;-63
2021/10/17 14:35:09;;;;;;;10.73;5.80;;;;;;;;;;5068143;28;20258;-62
2021/10/17 14:37:34;;;;;;;8.00;6.07;;;;;;;;;;5061383;28;20220;-62
2021/10/17 14:39:59;;;;;;;13.50;5.03;;;;;;;;;;5060576;28;20307;-63